Suggsville, Alabama
Current Conditions -  °F | °C
As of 2:13 AM on Monday 24 Nov 2014 (Local Time) from KGZH Reporting Station
Broken Clouds Broken Clouds  
Wind Chill: 66°   Ceiling: 1900
Heat Index: 66°   Visibility: 7mi
Dew Point: 64°   Wind: 5mph
Humidity: 93%   Direction: 190°S
Pressure: 29.77"   Gusts: NA
Location:  31.6457°N, 87.6115°W
Report Text: KGZH 240813Z AUTO 19004KT 7SM FEW005 SCT010 BKN019 19/18 A2977 RMK AO2 T01890178
Loading
Personal Weather Stations






























Interactive Weather Map New forecast layout! Learn more

10-Day Weather Forecast

Advertisements
Track Severe Weather on mobile